Time;durP1;ratioP1;P1;durP2;ratioP2;P2;SDS_P1;SDS_P2;PMS_P1;PMS_P2;Temp;Humidity;BMP_temperature;BMP_pressure;BME280_temperature;BME280_humidity;BME280_pressure;Samples;Min_cycle;Max_cycle;Signal;HPM_P1;HPM_P2
2022/07/12 00:02:07;;;;;;;3.88;2.70;;;17.20;99.90;;;;;;5048870;28;20212;-65
2022/07/12 00:04:33;;;;;;;3.03;2.65;;;16.60;99.90;;;;;;5029613;28;20235;-65
2022/07/12 00:07:00;;;;;;;3.70;2.72;;;16.60;99.90;;;;;;5032749;28;20233;-65
2022/07/12 00:09:27;;;;;;;4.53;2.63;;;16.60;99.90;;;;;;5029199;28;20232;-65
2022/07/12 00:11:55;;;;;;;3.00;2.70;;;16.60;99.90;;;;;;5032897;28;20672;-65
2022/07/12 00:14:22;;;;;;;3.65;2.83;;;;;;;;;;5026839;28;20195;-65
2022/07/12 00:16:51;;;;;;;3.40;2.20;;;16.70;99.90;;;;;;5037804;28;20337;-64
2022/07/12 00:19:17;;;;;;;2.95;2.22;;;16.70;99.90;;;;;;5046121;28;20197;-65
2022/07/12 00:21:45;;;;;;;3.45;2.63;;;16.70;99.90;;;;;;5030987;28;20270;-65
2022/07/12 00:24:12;;;;;;;4.55;2.30;;;16.70;99.90;;;;;;5035154;28;20225;-64
2022/07/12 00:26:38;;;;;;;2.50;2.30;;;16.60;99.90;;;;;;5026440;28;20201;-65
2022/07/12 00:29:06;;;;;;;3.53;2.28;;;16.70;99.90;;;;;;5045170;28;20197;-65
2022/07/12 00:31:33;;;;;;;4.97;2.85;;;16.80;99.90;;;;;;5013623;28;20810;-65
2022/07/12 00:34:01;;;;;;;2.90;2.60;;;16.70;99.90;;;;;;5032633;28;20206;-65
2022/07/12 00:36:28;;;;;;;3.55;2.78;;;16.20;99.90;;;;;;5028929;28;20197;-65
2022/07/12 00:38:56;;;;;;;6.28;2.80;;;16.70;99.90;;;;;;5033324;28;20772;-65
2022/07/12 00:41:23;;;;;;;2.95;2.63;;;16.70;99.90;;;;;;5041682;28;20205;-65
2022/07/12 00:43:50;;;;;;;5.50;2.80;;;16.70;99.90;;;;;;5021065;28;20205;-65
2022/07/12 00:46:21;;;;;;;3.65;2.67;;;16.70;99.90;;;;;;5017823;28;20209;-64
2022/07/12 00:48:48;;;;;;;2.70;2.40;;;16.80;99.90;;;;;;5040568;28;20201;-65
2022/07/12 00:51:17;;;;;;;5.50;2.90;;;16.60;99.90;;;;;;5042971;28;20194;-65
2022/07/12 00:53:44;;;;;;;4.00;2.53;;;16.60;99.90;;;;;;5032080;28;20328;-65
2022/07/12 00:56:13;;;;;;;2.95;2.63;;;16.90;99.90;;;;;;5032401;28;20197;-65
2022/07/12 00:58:41;;;;;;;3.70;2.60;;;16.70;99.90;;;;;;5028639;28;20201;-65
2022/07/12 01:01:08;;;;;;;2.65;2.33;;;16.90;99.90;;;;;;5012446;28;20204;-65
2022/07/12 01:03:35;;;;;;;3.40;2.50;;;16.60;99.90;;;;;;5030122;28;20814;-65
2022/07/12 01:06:02;;;;;;;3.78;2.95;;;16.60;99.90;;;;;;5036972;28;20221;-65
2022/07/12 01:08:31;;;;;;;3.63;2.67;;;17.10;99.90;;;;;;5034305;28;20232;-65
2022/07/12 01:10:59;;;;;;;5.55;3.17;;;16.60;99.90;;;;;;5035410;28;20262;-65
2022/07/12 01:13:26;;;;;;;4.32;2.97;;;16.60;99.90;;;;;;5042595;28;20204;-65
2022/07/12 01:15:54;;;;;;;3.60;3.00;;;16.60;99.90;;;;;;5044051;28;20208;-65
2022/07/12 01:18:21;;;;;;;3.20;2.90;;;16.60;99.90;;;;;;5025604;28;20429;-65
2022/07/12 01:20:48;;;;;;;8.18;3.20;;;16.60;99.90;;;;;;5035467;28;20201;-65
2022/07/12 01:23:16;;;;;;;6.05;3.08;;;16.60;99.90;;;;;;5050480;28;20201;-65
2022/07/12 01:25:43;;;;;;;3.70;3.30;;;14.60;99.90;;;;;;5033399;28;20240;-66
2022/07/12 01:28:11;;;;;;;3.90;3.08;;;16.60;99.90;;;;;;5042260;28;20677;-66
2022/07/12 01:30:38;;;;;;;3.40;2.78;;;16.60;99.90;;;;;;5031599;28;20213;-65
2022/07/12 01:33:05;;;;;;;9.57;2.72;;;16.60;99.90;;;;;;5023776;28;21316;-65
2022/07/12 01:35:33;;;;;;;3.25;2.72;;;16.70;99.90;;;;;;5046037;28;20559;-65
2022/07/12 01:38:00;;;;;;;3.65;2.88;;;16.60;99.90;;;;;;5051793;28;20204;-65
2022/07/12 01:40:28;;;;;;;3.72;2.85;;;16.60;99.90;;;;;;5042907;28;20197;-66
2022/07/12 01:42:56;;;;;;;6.05;2.90;;;16.60;99.90;;;;;;5046089;28;20216;-65
2022/07/12 01:45:22;;;;;;;3.28;2.97;;;16.40;99.90;;;;;;5038381;28;20710;-65
2022/07/12 01:47:50;;;;;;;2.80;2.22;;;16.60;99.90;;;;;;5043914;28;20833;-65
2022/07/12 01:50:17;;;;;;;3.28;2.63;;;16.60;99.90;;;;;;5017184;28;20201;-65
2022/07/12 01:52:44;;;;;;;3.65;2.17;;;16.60;99.90;;;;;;5041358;28;20204;-65
2022/07/12 01:55:12;;;;;;;2.45;2.20;;;16.50;99.90;;;;;;5042225;28;20211;-65
2022/07/12 01:57:43;;;;;;;2.88;2.08;;;16.70;99.90;;;;;;5030422;28;20224;-65
2022/07/12 02:00:12;;;;;;;2.15;1.95;;;16.20;99.90;;;;;;5033512;28;20213;-65
2022/07/12 02:02:39;;;;;;;2.10;1.90;;;16.50;99.90;;;;;;5046054;28;20201;-65
2022/07/12 02:05:06;;;;;;;3.17;2.50;;;16.40;99.90;;;;;;5020817;28;20220;-65
2022/07/12 02:07:33;;;;;;;2.55;2.35;;;16.40;99.90;;;;;;5030673;28;20197;-65
2022/07/12 02:10:00;;;;;;;3.35;2.90;;;16.50;99.90;;;;;;5044528;28;20233;-65
2022/07/12 02:12:27;;;;;;;4.25;2.90;;;16.40;99.90;;;;;;5028517;28;20287;-65
2022/07/12 02:14:55;;;;;;;4.53;3.67;;;16.40;99.90;;;;;;5044646;28;20730;-65
2022/07/12 02:17:22;;;;;;;3.17;2.85;;;16.40;99.90;;;;;;5022612;28;20581;-65
2022/07/12 02:19:49;;;;;;;4.10;2.92;;;16.40;99.90;;;;;;5014736;28;20205;-65
2022/07/12 02:22:16;;;;;;;4.22;3.22;;;16.50;99.90;;;;;;5027853;28;21769;-64
2022/07/12 02:24:43;;;;;;;4.80;3.60;;;16.50;99.90;;;;;;5017432;28;20231;-65
2022/07/12 02:27:10;;;;;;;3.67;3.20;;;16.50;99.90;;;;;;5018643;28;20201;-65
2022/07/12 02:29:36;;;;;;;5.72;3.60;;;16.60;99.90;;;;;;5045450;28;20208;-64
2022/07/12 02:32:05;;;;;;;4.38;3.05;;;16.30;99.90;;;;;;5020462;28;20212;-65
2022/07/12 02:34:32;;;;;;;4.35;2.83;;;16.40;99.90;;;;;;5042487;28;20201;-65
2022/07/12 02:36:59;;;;;;;4.00;2.85;;;16.40;99.90;;;;;;5015769;28;20701;-65
2022/07/12 02:39:26;;;;;;;4.88;2.97;;;16.40;99.90;;;;;;5039945;28;20228;-65
2022/07/12 02:41:53;;;;;;;3.40;3.05;;;16.40;99.90;;;;;;5025890;28;20200;-65
2022/07/12 02:44:19;;;;;;;3.30;3.00;;;16.40;99.90;;;;;;5036809;28;20197;-66
2022/07/12 02:46:46;;;;;;;5.53;3.42;;;16.50;99.90;;;;;;5025593;28;20232;-65
2022/07/12 02:49:15;;;;;;;4.60;3.08;;;16.40;99.90;;;;;;5028619;28;20204;-65
2022/07/12 02:51:41;;;;;;;3.95;3.17;;;16.40;99.90;;;;;;5003208;28;20216;-65
2022/07/12 02:54:08;;;;;;;4.22;2.97;;;16.40;99.90;;;;;;5035323;28;20227;-65
2022/07/12 02:56:35;;;;;;;3.05;2.60;;;16.50;99.90;;;;;;5022316;28;20680;-65
2022/07/12 02:59:02;;;;;;;4.40;3.10;;;16.50;99.90;;;;;;5037435;28;20219;-65
2022/07/12 03:01:29;;;;;;;6.80;2.85;;;16.50;99.90;;;;;;5026574;28;20205;-65
2022/07/12 03:03:55;;;;;;;4.45;3.10;;;16.50;99.90;;;;;;5020183;28;20205;-65
2022/07/12 03:06:24;;;;;;;3.17;2.72;;;16.50;99.90;;;;;;5014527;28;20224;-65
2022/07/12 03:08:51;;;;;;;2.88;2.65;;;16.90;99.90;;;;;;5039948;28;20232;-65
2022/07/12 03:11:17;;;;;;;3.40;3.10;;;16.50;99.90;;;;;;5036684;28;20212;-65
2022/07/12 03:13:44;;;;;;;3.17;2.88;;;17.40;99.90;;;;;;5027573;28;20219;-65
2022/07/12 03:16:11;;;;;;;3.10;2.70;;;16.40;99.90;;;;;;5039620;28;20221;-65
2022/07/12 03:18:40;;;;;;;2.65;2.45;;;16.40;99.90;;;;;;4998433;28;20227;-65
2022/07/12 03:21:07;;;;;;;3.75;2.65;;;16.50;99.90;;;;;;5009640;28;20703;-64
2022/07/12 03:23:35;;;;;;;4.75;3.30;;;16.50;99.90;;;;;;5033074;28;20213;-65
2022/07/12 03:26:02;;;;;;;3.10;2.80;;;16.50;99.90;;;;;;5036426;28;20746;-65
2022/07/12 03:28:29;;;;;;;4.63;2.88;;;16.40;99.90;;;;;;5022920;28;20616;-65
2022/07/12 03:30:56;;;;;;;3.55;3.05;;;16.40;99.90;;;;;;5033685;28;20197;-65
2022/07/12 03:33:23;;;;;;;3.17;2.50;;;16.50;99.90;;;;;;5021745;28;20239;-65
2022/07/12 03:35:49;;;;;;;5.43;3.20;;;16.10;99.90;;;;;;4995732;28;20527;-65
2022/07/12 03:38:16;;;;;;;2.95;2.65;;;16.50;99.90;;;;;;5039189;28;20192;-65
2022/07/12 03:40:44;;;;;;;3.20;2.90;;;16.10;99.90;;;;;;5035294;28;20710;-65
2022/07/12 03:43:11;;;;;;;3.42;2.92;;;16.50;99.90;;;;;;5014865;28;20312;-65
2022/07/12 03:45:38;;;;;;;3.30;2.70;;;16.50;99.90;;;;;;5036182;28;21162;-65
2022/07/12 03:48:05;;;;;;;2.85;2.50;;;16.40;99.90;;;;;;5027844;28;20200;-65
2022/07/12 03:50:32;;;;;;;3.22;2.50;;;14.40;99.90;;;;;;5012142;28;20805;-65
2022/07/12 03:52:59;;;;;;;3.10;2.40;;;16.20;99.90;;;;;;5013936;28;20212;-65
2022/07/12 03:55:26;;;;;;;6.88;2.75;;;16.50;99.90;;;;;;5047584;28;20201;-65
2022/07/12 03:57:54;;;;;;;4.50;2.53;;;16.70;99.90;;;;;;5027333;28;20196;-65
2022/07/12 04:00:21;;;;;;;3.45;2.60;;;16.50;99.90;;;;;;5037890;28;20192;-65
2022/07/12 04:02:48;;;;;;;3.38;2.70;;;16.50;99.90;;;;;;5034441;28;20209;-65
2022/07/12 04:05:15;;;;;;;2.83;2.63;;;16.50;99.90;;;;;;5029788;28;20232;-65
2022/07/12 04:07:42;;;;;;;6.93;2.70;;;16.50;99.90;;;;;;5016507;28;20585;-65
2022/07/12 04:10:09;;;;;;;4.07;3.08;;;16.50;99.90;;;;;;5041932;28;20316;-66
2022/07/12 04:12:36;;;;;;;3.72;3.10;;;16.50;99.90;;;;;;5047967;28;20242;-65
2022/07/12 04:15:06;;;;;;;3.40;3.10;;;16.50;99.90;;;;;;5030588;28;20839;-65
2022/07/12 04:17:33;;;;;;;3.20;2.90;;;16.50;99.90;;;;;;5033381;28;20205;-64
2022/07/12 04:20:00;;;;;;;4.78;2.80;;;16.60;99.90;;;;;;5022717;28;20207;-65
2022/07/12 04:22:27;;;;;;;4.45;3.00;;;16.60;99.90;;;;;;5017964;28;20215;-66
2022/07/12 04:24:54;;;;;;;4.47;2.97;;;16.40;99.90;;;;;;5039428;28;20212;-65
2022/07/12 04:27:21;;;;;;;3.95;2.63;;;16.40;99.90;;;;;;5030909;28;21054;-64
2022/07/12 04:29:48;;;;;;;3.60;2.95;;;16.40;99.90;;;;;;5035269;28;20227;-65
2022/07/12 04:32:16;;;;;;;3.75;2.80;;;16.40;99.90;;;;;;5050460;28;20201;-64
2022/07/12 04:34:43;;;;;;;3.05;2.75;;;16.60;99.90;;;;;;5031764;28;20218;-65
2022/07/12 04:37:10;;;;;;;3.10;2.83;;;16.40;99.90;;;;;;5035114;28;20205;-65
2022/07/12 04:39:39;;;;;;;4.43;2.97;;;16.40;99.90;;;;;;5024721;28;20305;-65
2022/07/12 04:42:06;;;;;;;3.28;2.97;;;16.20;99.90;;;;;;5048255;28;20942;-66
2022/07/12 04:44:33;;;;;;;3.97;2.80;;;16.50;99.90;;;;;;5035394;28;20234;-65
2022/07/12 04:46:59;;;;;;;4.55;3.05;;;16.40;99.90;;;;;;5043054;28;20224;-65
2022/07/12 04:49:28;;;;;;;3.25;2.78;;;16.50;99.90;;;;;;5044262;28;20200;-64
2022/07/12 04:51:54;;;;;;;3.08;2.78;;;16.50;99.90;;;;;;5032008;28;20201;-65
2022/07/12 04:54:21;;;;;;;3.33;2.78;;;16.20;99.90;;;;;;5022539;28;20227;-64
2022/07/12 04:56:48;;;;;;;8.93;2.90;;;16.50;99.90;;;;;;5036958;28;20205;-65
2022/07/12 04:59:15;;;;;;;2.67;2.47;;;16.50;99.90;;;;;;5034843;28;20219;-66
2022/07/12 05:01:42;;;;;;;4.03;2.90;;;16.50;99.90;;;;;;5024143;28;20224;-64
2022/07/12 05:04:08;;;;;;;4.05;2.40;;;16.50;99.90;;;;;;5028404;28;20212;-65
2022/07/12 05:06:37;;;;;;;2.58;2.38;;;16.50;99.90;;;;;;5025347;28;20231;-65
2022/07/12 05:09:03;;;;;;;3.65;3.28;;;16.50;99.90;;;;;;5017969;28;21013;-65
2022/07/12 05:11:32;;;;;;;4.60;2.97;;;16.50;99.90;;;;;;5041416;28;20201;-65
2022/07/12 05:13:58;;;;;;;5.47;2.50;;;16.50;99.90;;;;;;5050360;28;20277;-65
2022/07/12 05:16:25;;;;;;;3.60;3.10;;;17.50;99.90;;;;;;5021614;28;20200;-65
2022/07/12 05:18:53;;;;;;;3.35;2.63;;;16.50;99.90;;;;;;5049596;28;20225;-64
2022/07/12 05:21:20;;;;;;;3.35;2.80;;;16.50;99.90;;;;;;5035227;28;20222;-65
2022/07/12 05:23:48;;;;;;;4.03;3.63;;;16.50;99.90;;;;;;5050841;28;20565;-64
2022/07/12 05:26:14;;;;;;;3.38;3.05;;;16.50;99.90;;;;;;5021973;28;20231;-65
2022/07/12 05:28:41;;;;;;;3.58;3.13;;;16.40;99.90;;;;;;5043947;28;20198;-65
2022/07/12 05:31:10;;;;;;;6.53;3.60;;;16.40;99.90;;;;;;5036611;28;20200;-65
2022/07/12 05:33:37;;;;;;;4.57;3.28;;;16.70;99.90;;;;;;5045355;28;20193;-65
2022/07/12 05:36:04;;;;;;;4.32;3.13;;;16.50;99.90;;;;;;5048072;28;20688;-64
2022/07/12 05:38:31;;;;;;;4.10;3.58;;;16.50;99.90;;;;;;5035780;28;20208;-65
2022/07/12 05:40:59;;;;;;;3.60;3.30;;;16.50;99.90;;;;;;5025297;28;20216;-65
2022/07/12 05:43:26;;;;;;;4.40;3.30;;;16.40;99.90;;;;;;5049009;28;20208;-65
2022/07/12 05:45:53;;;;;;;3.92;3.35;;;16.50;99.90;;;;;;5047133;28;20877;-65
2022/07/12 05:48:20;;;;;;;4.85;2.83;;;16.50;99.90;;;;;;5016276;28;20231;-64
2022/07/12 05:50:47;;;;;;;2.03;1.83;;;16.50;99.90;;;;;;5048118;28;20204;-64
2022/07/12 05:53:22;;;;;;;3.72;2.33;;;16.50;99.90;;;;;;5027633;28;20207;-64
2022/07/12 05:55:49;;;;;;;2.58;2.20;;;16.50;99.90;;;;;;5045480;28;20205;-65
2022/07/12 05:58:17;;;;;;;2.85;2.50;;;16.70;99.90;;;;;;5012442;28;20782;-65
2022/07/12 06:00:44;;;;;;;2.45;2.25;;;16.50;99.90;;;;;;5040158;28;20324;-65
2022/07/12 06:03:11;;;;;;;2.45;1.98;;;16.60;99.90;;;;;;5029490;28;20216;-64
2022/07/12 06:05:38;;;;;;;2.28;2.08;;;16.80;99.90;;;;;;5031830;28;20410;-64
2022/07/12 06:08:06;;;;;;;2.25;2.05;;;16.60;99.90;;;;;;5028402;28;20209;-64
2022/07/12 06:10:33;;;;;;;3.38;2.30;;;17.00;99.90;;;;;;5047161;28;20443;-64
2022/07/12 06:13:00;;;;;;;2.30;2.10;;;17.70;99.90;;;;;;5021033;28;20197;-65
2022/07/12 06:15:29;;;;;;;2.33;1.83;;;16.80;99.90;;;;;;5041679;28;20605;-64
2022/07/12 06:17:56;;;;;;;2.85;2.50;;;16.60;99.90;;;;;;5036137;28;20208;-65
2022/07/12 06:20:22;;;;;;;2.45;2.25;;;13.00;99.90;;;;;;5042563;28;20203;-64
2022/07/12 06:22:49;;;;;;;2.53;2.30;;;16.50;99.90;;;;;;5048226;28;20212;-64
2022/07/12 06:25:17;;;;;;;2.40;2.10;;;16.50;99.90;;;;;;5026234;28;21004;-64
2022/07/12 06:27:44;;;;;;;2.20;2.00;;;;;;;;;;5000717;28;20236;-65
2022/07/12 06:30:12;;;;;;;1.85;1.75;;;16.50;99.90;;;;;;5042395;28;21041;-65
2022/07/12 06:32:40;;;;;;;2.40;2.20;;;16.60;99.90;;;;;;5038401;28;20607;-64
2022/07/12 06:35:07;;;;;;;2.90;1.80;;;16.60;99.90;;;;;;5045401;28;20620;-64
2022/07/12 06:37:34;;;;;;;4.38;2.20;;;16.70;99.90;;;;;;5046151;28;20226;-65
2022/07/12 06:40:01;;;;;;;3.75;2.00;;;16.70;99.90;;;;;;5025116;28;20398;-64
2022/07/12 06:42:28;;;;;;;2.58;2.10;;;16.60;99.90;;;;;;5041218;28;20197;-65
2022/07/12 06:44:55;;;;;;;2.00;1.83;;;17.10;99.90;;;;;;5021753;28;20321;-64
2022/07/12 06:47:22;;;;;;;2.80;2.08;;;17.30;99.90;;;;;;5041354;28;20236;-64
2022/07/12 06:49:50;;;;;;;3.05;1.92;;;16.90;99.90;;;;;;5028665;28;20231;-64
2022/07/12 06:52:17;;;;;;;1.73;1.63;;;16.90;99.90;;;;;;5042175;28;20197;-64
2022/07/12 06:54:46;;;;;;;2.13;1.88;;;17.00;99.90;;;;;;5024767;28;20201;-65
2022/07/12 06:57:13;;;;;;;2.10;1.83;;;17.00;99.90;;;;;;5043340;28;20659;-64
2022/07/12 06:59:40;;;;;;;2.30;2.10;;;;;;;;;;5013537;28;20208;-65
2022/07/12 07:02:08;;;;;;;2.40;2.10;;;17.00;99.90;;;;;;5036757;28;20588;-65
2022/07/12 07:04:35;;;;;;;6.30;2.20;;;17.10;99.90;;;;;;5010672;28;20211;-64
2022/07/12 07:07:04;;;;;;;3.65;1.88;;;17.10;99.90;;;;;;5037730;28;20436;-64
2022/07/12 07:09:31;;;;;;;2.22;1.90;;;15.00;99.90;;;;;;5032382;28;20237;-65
2022/07/12 07:11:58;;;;;;;2.42;1.80;;;17.20;99.90;;;;;;5023752;28;20437;-65
2022/07/12 07:14:25;;;;;;;1.73;1.63;;;;;;;;;;5047680;28;20197;-64
2022/07/12 07:16:54;;;;;;;1.70;1.60;;;17.20;99.90;;;;;;5018934;28;20207;-64
2022/07/12 07:19:22;;;;;;;2.45;1.83;;;17.30;99.90;;;;;;5046228;28;20205;-64
2022/07/12 07:21:49;;;;;;;2.47;1.90;;;17.40;99.90;;;;;;5026521;28;20394;-65
2022/07/12 07:24:18;;;;;;;2.55;2.10;;;17.40;99.90;;;;;;5047287;28;20208;-64
2022/07/12 07:26:44;;;;;;;2.20;2.00;;;17.30;99.90;;;;;;5026646;28;20239;-65
2022/07/12 07:31:56;;;;;;;2.53;2.20;;;17.30;99.90;;;;;;5023821;28;20238;-65
2022/07/12 07:34:23;;;;;;;2.97;2.38;;;17.40;99.90;;;;;;5044964;28;20208;-65
2022/07/12 07:36:50;;;;;;;5.60;2.53;;;;;;;;;;5030019;28;20724;-65
2022/07/12 07:39:19;;;;;;;2.83;2.28;;;17.40;99.90;;;;;;5041269;28;20555;-64
2022/07/12 07:41:46;;;;;;;3.38;3.05;;;;;;;;;;5043844;28;20200;-65
2022/07/12 07:44:13;;;;;;;3.90;3.28;;;17.40;99.90;;;;;;5033055;28;20200;-65
2022/07/12 07:46:39;;;;;;;4.43;3.50;;;17.40;99.90;;;;;;5018364;28;20270;-65
2022/07/12 07:49:06;;;;;;;4.07;3.67;;;17.50;99.90;;;;;;5045772;28;20209;-65
2022/07/12 07:51:33;;;;;;;4.63;4.20;;;17.40;99.90;;;;;;5019499;28;20650;-65
2022/07/12 07:54:02;;;;;;;6.05;4.82;;;17.50;99.90;;;;;;5038539;28;20232;-64
2022/07/12 07:56:30;;;;;;;4.32;3.92;;;17.50;99.90;;;;;;5031605;28;20208;-65
2022/07/12 07:58:57;;;;;;;4.47;3.67;;;17.40;99.90;;;;;;5026257;28;20707;-64
2022/07/12 08:01:42;;;;;;;2.60;2.40;;;17.50;99.90;;;;;;5016252;28;20197;-65
2022/07/12 08:04:09;;;;;;;3.35;3.05;;;17.60;99.90;;;;;;5046903;28;20200;-65
2022/07/12 08:06:36;;;;;;;4.75;3.10;;;17.60;99.90;;;;;;5048650;28;20333;-64
2022/07/12 08:09:04;;;;;;;3.35;3.03;;;17.70;99.90;;;;;;5038350;28;20223;-65
2022/07/12 08:11:32;;;;;;;3.05;2.70;;;17.70;99.90;;;;;;5032109;28;20727;-65
2022/07/12 08:13:59;;;;;;;3.03;2.72;;;17.80;99.90;;;;;;5035923;28;20215;-65
2022/07/12 08:16:26;;;;;;;4.97;2.83;;;;;;;;;;5045494;28;20219;-65
2022/07/12 08:18:53;;;;;;;5.28;2.83;;;17.90;99.90;;;;;;5016406;28;21715;-64
2022/07/12 08:21:20;;;;;;;2.80;2.60;;;17.90;99.90;;;;;;5045519;28;20572;-64
2022/07/12 08:23:47;;;;;;;2.60;2.40;;;18.00;99.90;;;;;;5031818;28;20200;-65
2022/07/12 08:26:13;;;;;;;2.60;2.40;;;18.00;99.90;;;;;;5038372;28;20951;-65
2022/07/12 08:28:42;;;;;;;3.38;2.50;;;18.10;99.90;;;;;;5036276;28;20360;-65
2022/07/12 08:31:09;;;;;;;2.65;2.35;;;18.10;99.90;;;;;;5030720;28;20266;-64
2022/07/12 08:33:36;;;;;;;2.78;2.47;;;;;;;;;;5009304;28;20844;-65
2022/07/12 08:36:03;;;;;;;2.85;2.60;;;18.20;99.90;;;;;;5043884;28;20607;-65
2022/07/12 08:38:31;;;;;;;2.90;2.25;;;18.20;99.90;;;;;;5028115;28;20320;-65
2022/07/12 08:40:58;;;;;;;2.50;1.95;;;18.30;99.90;;;;;;5043026;28;20770;-65
2022/07/12 08:43:25;;;;;;;5.25;2.50;;;17.70;99.90;;;;;;5029949;28;20201;-65
2022/07/12 08:45:53;;;;;;;2.85;2.00;;;18.70;99.90;;;;;;5034185;28;20209;-65
2022/07/12 08:48:20;;;;;;;2.58;2.38;;;21.70;99.90;;;;;;5026470;28;20602;-65
2022/07/12 08:51:01;;;;;;;2.90;2.65;;;18.30;99.90;;;;;;5038494;28;20492;-65
2022/07/12 08:53:28;;;;;;;3.55;3.00;;;18.30;99.90;;;;;;5044913;28;20413;-65
2022/07/12 08:55:55;;;;;;;2.30;2.10;;;18.30;99.90;;;;;;5031714;28;20208;-65
2022/07/12 08:58:22;;;;;;;2.80;2.50;;;18.30;99.90;;;;;;5037025;28;20308;-65
2022/07/12 09:00:49;;;;;;;3.22;2.45;;;18.30;99.90;;;;;;5029470;28;20660;-65
2022/07/12 09:03:17;;;;;;;2.45;2.22;;;18.60;99.90;;;;;;5035934;28;20200;-65
2022/07/12 09:05:51;;;;;;;2.47;2.28;;;18.40;99.90;;;;;;5021146;28;20860;-64
2022/07/12 09:08:18;;;;;;;2.30;2.03;;;18.50;99.90;;;;;;5041868;28;20224;-65
2022/07/12 09:10:57;;;;;;;2.30;2.10;;;18.50;99.90;;;;;;5027895;28;20221;-65
2022/07/12 09:13:52;;;;;;;3.05;2.75;;;18.50;99.90;;;;;;5038489;28;20198;-64
2022/07/12 09:16:20;;;;;;;4.07;2.78;;;18.50;99.90;;;;;;5009575;28;20649;-65
2022/07/12 09:18:49;;;;;;;2.58;2.38;;;18.60;99.90;;;;;;5042505;28;20205;-65
2022/07/12 09:21:23;;;;;;;2.60;2.40;;;20.80;99.90;;;;;;5002070;28;20252;-65
2022/07/12 09:23:55;;;;;;;2.95;2.35;;;18.60;99.90;;;;;;5044639;28;20693;-65
2022/07/12 09:26:22;;;;;;;2.97;2.67;;;18.80;99.90;;;;;;5026782;28;20509;-65
2022/07/12 09:28:51;;;;;;;2.58;2.30;;;19.00;99.90;;;;;;5045637;28;20225;-65
2022/07/12 09:31:18;;;;;;;5.70;2.20;;;19.00;99.90;;;;;;5012125;28;20201;-65
2022/07/12 09:36:58;;;;;;;2.55;2.35;;;20.20;99.90;;;;;;5004381;28;20216;-65
2022/07/12 09:39:26;;;;;;;3.55;2.80;;;19.20;99.90;;;;;;5041785;28;20201;-64
2022/07/12 09:41:56;;;;;;;3.17;2.20;;;19.10;99.90;;;;;;5021752;28;20465;-65
2022/07/12 09:44:24;;;;;;;5.70;2.60;;;19.20;99.90;;;;;;5038230;28;20660;-65
2022/07/12 09:46:52;;;;;;;6.35;2.33;;;19.30;99.90;;;;;;5012373;28;20434;-65
2022/07/12 09:49:20;;;;;;;3.53;2.60;;;19.40;99.90;;;;;;5038729;28;20205;-65
2022/07/12 09:51:49;;;;;;;3.05;2.65;;;19.50;99.90;;;;;;5009510;28;20520;-65
2022/07/12 09:54:24;;;;;;;3.67;2.10;;;19.50;99.90;;;;;;5029953;28;20211;-64
2022/07/12 09:56:53;;;;;;;2.92;2.38;;;19.80;99.90;;;;;;5019837;28;20200;-64
2022/07/12 09:59:24;;;;;;;4.53;2.50;;;19.80;99.90;;;;;;5046300;28;20193;-64
2022/07/12 10:01:52;;;;;;;2.30;2.10;;;21.10;99.90;;;;;;5014133;28;20756;-65
2022/07/12 10:04:23;;;;;;;2.90;2.60;;;20.20;99.90;;;;;;5043257;28;20732;-64
2022/07/12 10:06:51;;;;;;;4.85;2.42;;;19.90;99.90;;;;;;5007024;28;20209;-65
2022/07/12 10:09:18;;;;;;;3.05;2.75;;;20.20;99.90;;;;;;5020581;28;20475;-66
2022/07/12 10:11:45;;;;;;;4.70;2.97;;;20.20;99.90;;;;;;5026326;28;20950;-65
2022/07/12 10:14:13;;;;;;;3.38;3.00;;;20.10;99.90;;;;;;5044396;28;20197;-64
2022/07/12 10:16:43;;;;;;;3.92;2.95;;;20.30;99.90;;;;;;5028048;28;20698;-64
2022/07/12 10:19:24;;;;;;;4.88;2.75;;;20.30;99.90;;;;;;5030145;28;20210;-64
2022/07/12 10:21:52;;;;;;;3.17;2.88;;;20.50;99.90;;;;;;5042119;28;20397;-66
2022/07/12 10:24:52;;;;;;;3.20;2.90;;;20.60;99.90;;;;;;5000358;28;20570;-65
2022/07/12 10:27:31;;;;;;;4.35;2.38;;;20.60;99.90;;;;;;5025014;28;20228;-64
2022/07/12 10:30:23;;;;;;;4.15;3.08;;;20.70;99.90;;;;;;5041581;28;20201;-65
2022/07/12 10:32:53;;;;;;;3.88;3.47;;;20.70;99.90;;;;;;5013486;28;20236;-64
2022/07/12 10:35:23;;;;;;;3.90;3.50;;;20.80;99.90;;;;;;5025694;28;20288;-64
2022/07/12 10:38:18;;;;;;;4.38;3.35;;;20.90;99.90;;;;;;5035097;28;20200;-64
2022/07/12 10:40:50;;;;;;;3.80;3.15;;;21.00;99.90;;;;;;4992712;28;20344;-64
2022/07/12 10:44:04;;;;;;;3.50;3.20;;;21.10;99.90;;;;;;5022352;28;20225;-64
2022/07/12 10:46:20;;;;;;;3.40;3.10;;;21.20;99.90;;;;;;5047068;28;20220;-64
2022/07/12 10:48:47;;;;;;;3.45;2.80;;;24.70;99.90;;;;;;5011761;28;20669;-65
2022/07/12 10:51:16;;;;;;;6.53;2.90;;;21.10;99.90;;;;;;5043360;28;20671;-66
2022/07/12 10:53:45;;;;;;;3.83;3.50;;;21.00;99.90;;;;;;5012553;28;20642;-66
2022/07/12 10:56:20;;;;;;;3.67;3.35;;;21.20;99.90;;;;;;5024657;28;20260;-64
2022/07/12 10:58:49;;;;;;;4.55;3.30;;;21.30;99.90;;;;;;5025337;28;20290;-65
2022/07/12 11:01:17;;;;;;;3.72;3.40;;;21.30;99.90;;;;;;5038195;28;20221;-65
2022/07/12 11:03:46;;;;;;;3.63;3.13;;;21.30;99.90;;;;;;5023067;28;20813;-66
2022/07/12 11:06:16;;;;;;;3.47;3.00;;;21.40;99.90;;;;;;5026709;28;20380;-65
2022/07/12 11:08:55;;;;;;;4.93;2.90;;;21.40;99.90;;;;;;5036206;28;20438;-64
2022/07/12 11:11:22;;;;;;;4.57;3.08;;;21.20;99.90;;;;;;5000221;28;20220;-64
2022/07/12 11:13:50;;;;;;;4.78;2.95;;;22.60;99.90;;;;;;5027629;28;21077;-65
2022/07/12 11:16:17;;;;;;;3.25;2.85;;;21.20;99.90;;;;;;5043875;28;20201;-65
2022/07/12 11:18:45;;;;;;;2.83;2.55;;;21.40;99.90;;;;;;5042750;28;20196;-64
2022/07/12 11:21:12;;;;;;;2.60;2.13;;;21.40;99.90;;;;;;5031515;28;20205;-65
2022/07/12 11:23:41;;;;;;;1.92;1.83;;;20.90;99.90;;;;;;5039986;28;20221;-64
2022/07/12 11:26:10;;;;;;;2.50;2.10;;;21.30;99.90;;;;;;5011200;28;24136;-65
2022/07/12 11:28:38;;;;;;;2.05;1.90;;;21.60;99.90;;;;;;5022161;28;20228;-65
2022/07/12 11:31:09;;;;;;;2.03;1.83;;;21.40;99.90;;;;;;5032058;28;20203;-65
2022/07/12 11:33:36;;;;;;;2.33;2.13;;;21.70;99.90;;;;;;5039806;28;20660;-65
2022/07/12 11:36:05;;;;;;;2.38;2.10;;;21.60;99.90;;;;;;5044926;28;20435;-65
2022/07/12 11:38:33;;;;;;;4.30;2.17;;;21.70;99.90;;;;;;5029558;28;20208;-64
2022/07/12 11:41:03;;;;;;;3.35;1.90;;;21.70;99.90;;;;;;5044902;28;20592;-65
2022/07/12 11:43:31;;;;;;;2.00;1.80;;;21.70;99.90;;;;;;4998230;28;20577;-64
2022/07/12 11:45:58;;;;;;;2.58;2.17;;;21.70;99.90;;;;;;5035543;28;20205;-65
2022/07/12 11:48:26;;;;;;;2.30;1.67;;;21.70;99.90;;;;;;5039795;28;20225;-65
2022/07/12 11:50:54;;;;;;;2.22;1.90;;;21.80;99.90;;;;;;5037804;28;20225;-63
2022/07/12 11:53:23;;;;;;;1.95;1.75;;;21.70;99.90;;;;;;5029609;28;20254;-65
2022/07/12 11:55:52;;;;;;;1.88;1.70;;;21.70;99.90;;;;;;5034786;28;20228;-65
2022/07/12 11:58:21;;;;;;;2.00;1.80;;;21.40;99.90;;;;;;5002618;28;20247;-66
2022/07/12 12:00:49;;;;;;;2.28;1.77;;;21.80;99.90;;;;;;5021099;28;20621;-64
2022/07/12 12:03:18;;;;;;;2.58;2.10;;;21.90;99.90;;;;;;5014525;28;20413;-65
2022/07/12 12:05:46;;;;;;;2.60;1.75;;;21.90;99.90;;;;;;5040484;28;20201;-66
2022/07/12 12:08:14;;;;;;;1.38;1.27;;;21.40;99.90;;;;;;5011883;28;20944;-65
2022/07/12 12:10:42;;;;;;;1.73;1.50;;;22.00;99.90;;;;;;5037175;28;20200;-66
2022/07/12 12:13:15;;;;;;;2.75;1.40;;;22.00;99.90;;;;;;4999335;28;22948;-66
2022/07/12 12:15:51;;;;;;;1.40;1.30;;;22.00;99.90;;;;;;5041248;28;20236;-65
2022/07/12 12:18:28;;;;;;;1.67;1.55;;;22.40;99.90;;;;;;5029620;28;20204;-64
2022/07/12 12:20:59;;;;;;;1.80;1.70;;;22.20;99.90;;;;;;5041673;28;20201;-64
2022/07/12 12:23:26;;;;;;;1.60;1.50;;;;;;;;;;5027190;28;20192;-64
2022/07/12 12:25:53;;;;;;;2.10;1.90;;;22.30;99.90;;;;;;5040533;28;20765;-66
2022/07/12 12:28:19;;;;;;;5.20;2.55;;;22.30;99.90;;;;;;5012532;28;20359;-65
2022/07/12 12:30:52;;;;;;;2.53;1.88;;;22.10;99.90;;;;;;5023242;28;20205;-64
2022/07/12 12:33:36;;;;;;;2.95;1.73;;;22.40;99.90;;;;;;5020119;28;20622;-64
2022/07/12 12:36:16;;;;;;;1.60;1.50;;;22.30;99.90;;;;;;5036204;28;20197;-64
2022/07/12 12:38:43;;;;;;;1.75;1.40;;;;;;;;;;5030120;28;20913;-64
2022/07/12 12:41:11;;;;;;;1.92;1.50;;;22.40;99.90;;;;;;5012655;28;20544;-64
2022/07/12 12:43:38;;;;;;;1.70;1.60;;;22.50;99.90;;;;;;5003370;28;20217;-63
2022/07/12 12:46:06;;;;;;;1.75;1.58;;;22.50;99.90;;;;;;5004352;28;20201;-63
2022/07/12 12:48:35;;;;;;;1.50;1.40;;;22.50;99.90;;;;;;5020319;28;20225;-64
2022/07/12 12:51:07;;;;;;;1.40;1.30;;;22.90;99.90;;;;;;5027078;28;20221;-64
2022/07/12 12:53:34;;;;;;;1.80;1.30;;;22.80;99.90;;;;;;5040615;28;20220;-64
2022/07/12 12:56:01;;;;;;;1.30;1.20;;;22.70;99.90;;;;;;5024387;28;20589;-64
2022/07/12 12:58:28;;;;;;;1.73;1.35;;;22.80;99.90;;;;;;5012519;28;20209;-64
2022/07/12 13:00:57;;;;;;;0.80;0.80;;;22.70;99.90;;;;;;5031444;28;20217;-64
2022/07/12 13:03:25;;;;;;;0.95;0.82;;;22.70;99.90;;;;;;5022054;28;20365;-63